createdAt,value
2018-04-28T00:01:04.229Z,97.40
2018-04-28T00:03:31.926Z,97.80
2018-04-28T00:06:00.225Z,97.30
2018-04-28T00:08:32.290Z,97.60
2018-04-28T00:10:59.850Z,97.30
2018-04-28T00:13:27.387Z,97.50
2018-04-28T00:16:11.495Z,97.70
2018-04-28T00:18:48.935Z,97.60
2018-04-28T00:21:16.444Z,97.70
2018-04-28T00:23:45.888Z,97.80
2018-04-28T00:26:13.445Z,97.80
2018-04-28T00:28:42.684Z,98.00
2018-04-28T00:31:10.207Z,98.10
2018-04-28T00:33:47.362Z,98.00
2018-04-28T00:36:16.532Z,98.40
2018-04-28T00:38:46.612Z,98.40
2018-04-28T00:41:14.115Z,98.40
2018-04-28T00:43:41.605Z,98.60
2018-04-28T00:46:15.140Z,98.60
2018-04-28T00:48:46.203Z,98.70
2018-04-28T00:51:13.732Z,98.90
2018-04-28T00:53:41.207Z,99.00
2018-04-28T00:56:08.730Z,98.80
2018-04-28T00:58:46.064Z,99.00
2018-04-28T01:01:30.167Z,98.90
2018-04-28T01:04:03.648Z,99.00
2018-04-28T01:06:31.153Z,99.00
2018-04-28T01:08:58.693Z,99.60
2018-04-28T01:11:45.049Z,99.80
2018-04-28T01:14:12.553Z,99.50
2018-04-28T01:16:54.940Z,99.90
2018-04-28T01:19:24.298Z,99.90
2018-04-28T01:21:51.796Z,99.90
2018-04-28T01:24:23.888Z,99.90
2018-04-28T01:30:27.347Z,99.90
2018-04-28T01:33:11.320Z,99.90
2018-04-28T01:36:03.553Z,99.90
2018-04-28T01:38:36.825Z,99.90
2018-04-28T01:41:13.751Z,99.90
2018-04-28T01:46:56.449Z,99.90
2018-04-28T01:49:29.765Z,99.90
2018-04-28T01:51:59.145Z,99.90
2018-04-28T01:54:26.703Z,99.90
2018-04-28T01:56:59.160Z,99.90
2018-04-28T02:02:32.809Z,99.90
2018-04-28T02:05:01.089Z,99.90
2018-04-28T02:07:44.414Z,99.90
2018-04-28T02:10:11.898Z,99.90
2018-04-28T02:12:55.197Z,99.90
2018-04-28T02:15:24.418Z,99.90
2018-04-28T02:17:58.790Z,99.90
2018-04-28T02:20:31.183Z,99.90
2018-04-28T02:23:16.530Z,99.90
2018-04-28T02:25:57.597Z,99.90
2018-04-28T02:28:27.931Z,99.90
2018-04-28T02:30:58.359Z,99.90
2018-04-28T02:33:28.346Z,99.90
2018-04-28T02:35:55.984Z,99.90
2018-04-28T02:38:36.020Z,99.90
2018-04-28T02:41:19.016Z,99.90
2018-04-28T02:43:51.598Z,99.90
2018-04-28T02:46:29.004Z,99.90
2018-04-28T02:49:09.345Z,99.90
2018-04-28T02:51:48.765Z,99.90
2018-04-28T02:54:22.556Z,99.90
2018-04-28T02:56:52.434Z,99.90
2018-04-28T02:59:37.304Z,99.90
2018-04-28T03:02:11.550Z,99.90
2018-04-28T03:04:39.980Z,99.90
2018-04-28T03:07:08.386Z,99.90
2018-04-28T03:09:42.811Z,99.90
2018-04-28T03:12:10.295Z,99.90
2018-04-28T03:14:51.710Z,99.90
2018-04-28T03:17:20.722Z,99.90
2018-04-28T03:19:49.890Z,99.90
2018-04-28T03:22:18.896Z,99.90
2018-04-28T03:24:52.261Z,99.90
2018-04-28T03:27:23.601Z,99.90
2018-04-28T03:30:01.705Z,99.90
2018-04-28T03:32:51.585Z,99.90
2018-04-28T03:35:26.621Z,99.90
2018-04-28T03:37:57.928Z,99.90
2018-04-28T03:40:26.936Z,99.90
2018-04-28T03:43:03.287Z,99.90
2018-04-28T03:45:36.345Z,99.90
2018-04-28T03:51:24.168Z,99.90
2018-04-28T03:53:55.100Z,99.90
2018-04-28T03:56:25.100Z,99.90
2018-04-28T03:59:04.682Z,99.90
2018-04-28T04:01:44.117Z,99.80
2018-04-28T04:04:22.436Z,99.60
2018-04-28T04:06:55.619Z,99.70
2018-04-28T04:09:26.774Z,99.50
2018-04-28T04:12:00.746Z,99.40
2018-04-28T04:14:49.690Z,99.30
2018-04-28T04:17:29.781Z,99.60
2018-04-28T04:20:15.953Z,99.60
2018-04-28T04:25:47.204Z,99.40
2018-04-28T04:28:18.419Z,99.80
2018-04-28T04:31:07.743Z,99.70
2018-04-28T04:33:41.179Z,99.80
2018-04-28T04:36:30.487Z,99.80
2018-04-28T04:42:33.530Z,99.90
2018-04-28T04:45:04.737Z,99.90
2018-04-28T04:47:39.757Z,99.90
2018-04-28T04:50:28.091Z,99.90
2018-04-28T04:53:20.458Z,99.90
2018-04-28T04:55:50.587Z,99.70
2018-04-28T05:01:46.563Z,99.60
2018-04-28T05:04:39.562Z,99.90
2018-04-28T05:07:19.541Z,99.40
2018-04-28T05:09:54.857Z,99.40
2018-04-28T05:12:38.131Z,99.70
2018-04-28T05:15:33.408Z,99.60
2018-04-28T05:18:22.453Z,99.60
2018-04-28T05:21:02.436Z,99.70
2018-04-28T05:23:37.460Z,99.80
2018-04-28T05:26:11.344Z,99.20
2018-04-28T05:31:48.745Z,99.20
2018-04-28T05:34:28.852Z,99.00
2018-04-28T05:40:15.395Z,99.10
2018-04-28T05:42:54.624Z,99.00
2018-04-28T05:45:33.676Z,98.80
2018-04-28T05:48:18.746Z,98.60
2018-04-28T05:50:48.625Z,98.60
2018-04-28T05:53:36.861Z,98.70
2018-04-28T05:56:25.019Z,98.40
2018-04-28T05:59:01.196Z,98.60
2018-04-28T06:01:50.401Z,98.10
2018-04-28T06:04:29.584Z,97.70
2018-04-28T06:07:08.732Z,97.50
2018-04-28T06:09:53.058Z,97.50
2018-04-28T06:15:44.014Z,96.20
2018-04-28T06:18:24.013Z,97.00
2018-04-28T06:20:51.525Z,97.00
2018-04-28T06:23:19.827Z,97.60
2018-04-28T06:25:47.339Z,97.60
2018-04-28T06:28:14.829Z,97.40
2018-04-28T06:30:42.345Z,97.60
2018-04-28T06:33:09.840Z,97.70
2018-04-28T06:35:38.166Z,97.70
2018-04-28T06:38:05.639Z,97.70
2018-04-28T06:40:33.123Z,98.00
2018-04-28T06:43:00.647Z,97.80
2018-04-28T06:45:28.156Z,98.20
2018-04-28T06:47:55.713Z,98.40
2018-04-28T06:50:23.230Z,98.30
2018-04-28T06:52:50.786Z,98.10
2018-04-28T06:55:18.298Z,97.90
2018-04-28T06:57:45.809Z,97.90
2018-04-28T07:00:13.385Z,97.90
2018-04-28T07:02:41.697Z,97.20
2018-04-28T07:05:09.427Z,97.20
2018-04-28T07:07:37.684Z,97.70
2018-04-28T07:10:05.237Z,97.60
2018-04-28T07:12:32.851Z,97.50
2018-04-28T07:15:00.337Z,97.40
2018-04-28T07:17:27.871Z,97.20
2018-04-28T07:19:55.358Z,97.20
2018-04-28T07:22:22.872Z,97.00
2018-04-28T07:24:50.361Z,97.20
2018-04-28T07:27:17.928Z,97.30
2018-04-28T07:29:45.428Z,97.30
2018-04-28T07:32:13.696Z,96.90
2018-04-28T07:34:41.231Z,96.90
2018-04-28T07:37:08.721Z,97.00
2018-04-28T07:39:36.221Z,97.60
2018-04-28T07:42:03.775Z,97.10
2018-04-28T07:44:31.251Z,97.10
2018-04-28T07:46:58.848Z,97.00
2018-04-28T07:49:27.112Z,97.10
2018-04-28T07:51:55.378Z,96.30
2018-04-28T07:54:22.981Z,96.30
2018-04-28T07:56:50.617Z,96.40
2018-04-28T07:59:18.916Z,96.40
2018-04-28T08:01:46.420Z,96.40
2018-04-28T08:04:13.934Z,95.60
2018-04-28T08:06:41.435Z,96.20
2018-04-28T08:09:09.719Z,95.90
2018-04-28T08:11:37.252Z,95.90
2018-04-28T08:14:05.054Z,95.80
2018-04-28T08:16:33.324Z,95.70
2018-04-28T08:19:01.752Z,95.40
2018-04-28T08:21:29.559Z,95.40
2018-04-28T08:23:57.051Z,95.40
2018-04-28T08:26:24.589Z,95.80
2018-04-28T08:28:52.828Z,95.60
2018-04-28T08:31:20.375Z,95.60
2018-04-28T08:33:47.866Z,95.40
2018-04-28T08:36:15.391Z,94.80
2018-04-28T08:38:42.887Z,95.00
2018-04-28T08:41:11.303Z,93.50
2018-04-28T08:43:38.896Z,93.50
2018-04-28T08:46:06.526Z,94.50
2018-04-28T08:48:34.086Z,93.80
2018-04-28T08:51:01.604Z,93.60
2018-04-28T08:53:29.573Z,93.60
2018-04-28T08:56:07.736Z,92.70
2018-04-28T08:58:35.287Z,92.60
2018-04-28T09:01:02.792Z,91.70
2018-04-28T09:03:31.209Z,91.30
2018-04-28T09:05:58.721Z,91.30
2018-04-28T09:08:26.269Z,91.20
2018-04-28T09:10:53.848Z,91.50
2018-04-28T09:13:21.410Z,91.50
2018-04-28T09:15:49.778Z,90.90
2018-04-28T09:18:17.295Z,90.90
2018-04-28T09:20:56.954Z,90.90
2018-04-28T09:26:03.862Z,90.20
2018-04-28T09:28:32.065Z,90.10
2018-04-28T09:30:59.591Z,87.80
2018-04-28T09:33:28.057Z,86.80
2018-04-28T09:35:55.656Z,88.20
2018-04-28T09:38:23.977Z,87.30
2018-04-28T09:40:51.543Z,87.30
2018-04-28T09:43:28.188Z,90.00
2018-04-28T09:45:55.815Z,90.20
2018-04-28T09:48:24.198Z,87.10
2018-04-28T09:51:04.935Z,87.20
2018-04-28T09:53:32.857Z,87.20
2018-04-28T09:56:00.373Z,85.70
2018-04-28T09:58:27.882Z,87.40
2018-04-28T10:00:55.615Z,88.20
2018-04-28T10:03:28.831Z,89.50
2018-04-28T10:05:56.381Z,88.90
2018-04-28T10:08:23.961Z,90.10
2018-04-28T10:10:51.554Z,89.90
2018-04-28T10:13:19.162Z,89.30
2018-04-28T10:15:46.690Z,88.20
2018-04-28T10:18:15.006Z,87.90
2018-04-28T10:20:55.191Z,87.80
2018-04-28T10:23:24.521Z,87.20
2018-04-28T10:25:52.809Z,86.70
2018-04-28T10:28:20.341Z,86.60
2018-04-28T10:30:51.361Z,85.00
2018-04-28T10:33:21.521Z,84.90
2018-04-28T10:35:49.100Z,84.80
2018-04-28T10:38:16.643Z,84.70
2018-04-28T10:40:44.224Z,84.90
2018-04-28T10:43:11.754Z,83.20
2018-04-28T10:45:39.815Z,83.60
2018-04-28T10:48:09.814Z,84.80
2018-04-28T10:50:37.347Z,84.80
2018-04-28T10:53:05.580Z,85.30
2018-04-28T10:55:33.105Z,85.80
2018-04-28T10:58:00.876Z,85.30
2018-04-28T11:00:29.203Z,84.60
2018-04-28T11:02:56.748Z,84.60
2018-04-28T11:05:24.494Z,83.30
2018-04-28T11:07:53.610Z,79.10
2018-04-28T11:10:22.010Z,79.10
2018-04-28T11:12:50.085Z,78.60
2018-04-28T11:15:17.704Z,78.50
2018-04-28T11:17:45.312Z,74.30
2018-04-28T11:20:13.244Z,76.80
2018-04-28T11:22:40.745Z,77.50
2018-04-28T11:25:08.325Z,77.50
2018-04-28T11:27:38.905Z,76.10
2018-04-28T11:30:07.360Z,76.10
2018-04-28T11:32:36.048Z,75.10
2018-04-28T11:35:03.718Z,72.20
2018-04-28T11:37:31.304Z,72.20
2018-04-28T11:39:58.861Z,74.90
2018-04-28T11:42:26.387Z,75.70
2018-04-28T11:44:53.922Z,75.00
2018-04-28T11:47:36.612Z,75.20
2018-04-28T11:50:14.953Z,75.20
2018-04-28T11:52:43.341Z,71.50
2018-04-28T11:55:10.928Z,71.30
2018-04-28T11:57:38.541Z,70.20
2018-04-28T12:00:07.186Z,67.20
2018-04-28T12:02:34.807Z,67.10
2018-04-28T12:05:02.307Z,69.50
2018-04-28T12:07:29.860Z,70.70
2018-04-28T12:09:57.492Z,70.00
2018-04-28T12:12:25.012Z,70.70
2018-04-28T12:14:52.534Z,68.60
2018-04-28T12:17:20.091Z,72.50
2018-04-28T12:19:47.620Z,73.80
2018-04-28T12:22:15.150Z,74.40
2018-04-28T12:24:43.457Z,73.90
2018-04-28T12:27:10.957Z,73.20
2018-04-28T12:29:38.480Z,73.30
2018-04-28T12:32:05.988Z,72.60
2018-04-28T12:34:34.328Z,71.10
2018-04-28T12:37:01.848Z,71.00
2018-04-28T12:39:29.401Z,69.50
2018-04-28T12:41:57.677Z,69.40
2018-04-28T12:44:25.229Z,69.20
2018-04-28T12:46:53.506Z,69.70
2018-04-28T12:49:21.078Z,69.70
2018-04-28T12:51:48.583Z,71.70
2018-04-28T12:54:16.203Z,71.30
2018-04-28T12:56:43.726Z,69.80
2018-04-28T12:59:12.016Z,69.60
2018-04-28T13:01:40.593Z,70.80
2018-04-28T13:04:08.085Z,71.40
2018-04-28T13:06:35.597Z,69.60
2018-04-28T13:09:03.987Z,67.70
2018-04-28T13:11:32.274Z,67.80
2018-04-28T13:13:59.801Z,67.80
2018-04-28T13:16:27.316Z,68.40
2018-04-28T13:18:54.943Z,67.00
2018-04-28T13:21:23.222Z,67.50
2018-04-28T13:23:50.741Z,67.40
2018-04-28T13:26:18.272Z,66.70
2018-04-28T13:28:45.797Z,66.70
2018-04-28T13:31:13.609Z,66.20
2018-04-28T13:33:41.253Z,66.10
2018-04-28T13:36:08.847Z,66.70
2018-04-28T13:38:37.173Z,66.60
2018-04-28T13:41:04.774Z,66.60
2018-04-28T13:43:32.270Z,66.00
2018-04-28T13:45:59.912Z,66.20
2018-04-28T13:48:28.214Z,65.20
2018-04-28T13:50:55.803Z,65.10
2018-04-28T13:53:23.417Z,64.60
2018-04-28T13:55:50.981Z,64.00
2018-04-28T13:58:19.324Z,66.70
2018-04-28T14:00:46.854Z,66.60
2018-04-28T14:03:14.432Z,66.20
2018-04-28T14:05:41.954Z,66.60
2018-04-28T14:08:09.468Z,67.10
2018-04-28T14:10:37.762Z,66.80
2018-04-28T14:13:06.086Z,66.70
2018-04-28T14:15:33.603Z,66.70
2018-04-28T14:18:01.148Z,65.50
2018-04-28T14:20:29.683Z,66.00
2018-04-28T14:22:57.319Z,66.00
2018-04-28T14:25:24.807Z,65.90
2018-04-28T14:27:52.334Z,63.90
2018-04-28T14:30:19.895Z,63.60
2018-04-28T14:32:48.193Z,64.30
2018-04-28T14:35:15.723Z,66.80
2018-04-28T14:37:43.237Z,66.60
2018-04-28T14:40:11.650Z,65.50
2018-04-28T14:42:42.064Z,65.40
2018-04-28T14:45:10.473Z,65.20
2018-04-28T14:47:37.977Z,65.20
2018-04-28T14:50:06.303Z,67.50
2018-04-28T14:52:33.888Z,66.80
2018-04-28T14:55:01.396Z,67.30
2018-04-28T14:57:28.991Z,67.70
2018-04-28T14:59:56.502Z,65.40
2018-04-28T15:02:24.780Z,64.60
2018-04-28T15:04:52.382Z,64.60
2018-04-28T15:07:19.884Z,64.90
2018-04-28T15:09:48.255Z,64.90
2018-04-28T15:12:15.771Z,64.90
2018-04-28T15:14:43.365Z,66.70
2018-04-28T15:17:10.904Z,67.20
2018-04-28T15:19:38.534Z,67.70
2018-04-28T15:22:06.041Z,67.00
2018-04-28T15:24:33.596Z,64.50
2018-04-28T15:27:01.128Z,64.20
2018-04-28T15:29:28.686Z,64.80
2018-04-28T15:31:56.197Z,65.30
2018-04-28T15:34:24.461Z,66.40
2018-04-28T15:36:52.741Z,66.90
2018-04-28T15:39:21.048Z,66.60
2018-04-28T15:41:48.564Z,66.60
2018-04-28T15:44:16.960Z,66.60
2018-04-28T15:46:44.519Z,66.60
2018-04-28T15:49:13.281Z,66.90
2018-04-28T15:51:41.608Z,66.80
2018-04-28T15:54:10.893Z,68.00
2018-04-28T15:56:38.436Z,68.10
2018-04-28T15:59:09.485Z,67.80
2018-04-28T16:01:37.249Z,67.80
2018-04-28T16:30:36.989Z,66.20
2018-04-28T16:33:05.715Z,66.90
2018-04-28T16:35:34.094Z,70.40
2018-04-28T16:38:01.600Z,70.20
2018-04-28T16:40:30.624Z,69.60
2018-04-28T16:42:58.991Z,70.20
2018-04-28T16:45:27.899Z,70.80
2018-04-28T16:47:56.358Z,70.50
2018-04-28T16:50:25.670Z,71.20
2018-04-28T16:52:55.309Z,73.00
2018-04-28T16:55:25.019Z,72.90
2018-04-28T16:57:53.566Z,73.60
2018-04-28T17:00:21.956Z,72.90
2018-04-28T17:02:50.408Z,72.90
2018-04-28T17:05:18.016Z,69.00
2018-04-28T17:07:45.670Z,68.60
2018-04-28T17:10:13.250Z,68.90
2018-04-28T17:12:40.780Z,67.70
2018-04-28T17:15:08.286Z,68.60
2018-04-28T17:17:47.739Z,67.70
2018-04-28T17:20:15.368Z,68.70
2018-04-28T17:22:45.296Z,68.30
2018-04-28T17:25:12.906Z,67.90
2018-04-28T17:27:54.617Z,68.40
2018-04-28T17:30:22.455Z,68.10
2018-04-28T17:32:50.052Z,67.80
2018-04-28T17:35:17.630Z,67.10
2018-04-28T17:37:45.166Z,67.40
2018-04-28T17:40:13.644Z,68.50
2018-04-28T17:42:51.653Z,68.30
2018-04-28T17:45:19.211Z,68.30
2018-04-28T17:47:57.920Z,68.60
2018-04-28T17:50:25.517Z,68.70
2018-04-28T17:52:53.127Z,68.80
2018-04-28T17:55:22.590Z,68.20
2018-04-28T17:57:51.150Z,69.00
2018-04-28T18:00:19.958Z,69.00
2018-04-28T18:02:47.744Z,69.50
2018-04-28T18:05:15.156Z,70.40
2018-04-28T18:07:42.753Z,71.00
2018-04-28T18:10:11.054Z,72.70
2018-04-28T18:12:40.030Z,73.30
2018-04-28T18:15:08.546Z,73.30
2018-04-28T18:17:39.576Z,73.60
2018-04-28T18:20:07.468Z,74.10
2018-04-28T18:22:45.106Z,75.10
2018-04-28T18:25:14.840Z,76.90
2018-04-28T18:27:42.759Z,76.90
2018-04-28T18:30:11.368Z,77.70
2018-04-28T18:32:38.937Z,78.60
2018-04-28T18:35:07.010Z,79.00
2018-04-28T18:37:35.388Z,79.50
2018-04-28T18:40:03.003Z,79.40
2018-04-28T18:42:30.529Z,79.90
2018-04-28T18:44:58.506Z,81.40
2018-04-28T18:47:26.139Z,82.10
2018-04-28T18:49:53.705Z,82.40
2018-04-28T18:52:21.230Z,83.20
2018-04-28T18:54:49.561Z,84.00
2018-04-28T18:57:17.400Z,84.20
2018-04-28T18:59:45.394Z,84.80
2018-04-28T19:02:15.059Z,85.60
2018-04-28T19:04:42.665Z,86.10
2018-04-28T19:07:10.497Z,86.80
2018-04-28T19:09:39.183Z,86.70
2018-04-28T19:12:07.036Z,86.50
2018-04-28T19:14:34.677Z,86.50
2018-04-28T19:17:02.383Z,86.80
2018-04-28T19:19:31.011Z,87.30
2018-04-28T19:21:58.719Z,87.90
2018-04-28T19:24:26.526Z,88.30
2018-04-28T19:26:54.174Z,88.40
2018-04-28T19:29:31.815Z,88.10
2018-04-28T19:32:01.241Z,89.00
2018-04-28T19:34:29.233Z,88.90
2018-04-28T19:37:07.371Z,88.60
2018-04-28T19:39:35.487Z,88.80
2018-04-28T19:42:03.739Z,89.10
2018-04-28T19:44:33.187Z,88.80
2018-04-28T19:47:01.992Z,88.80
2018-04-28T19:49:30.008Z,88.40
2018-04-28T19:51:58.443Z,89.10
2018-04-28T19:54:27.314Z,89.00
2018-04-28T19:56:55.469Z,88.90
2018-04-28T19:59:24.029Z,87.90
2018-04-28T20:01:51.700Z,87.90
2018-04-28T20:04:19.820Z,88.30
2018-04-28T20:06:47.389Z,88.30
2018-04-28T20:09:15.130Z,88.50
2018-04-28T20:11:52.658Z,88.10
2018-04-28T20:14:20.430Z,88.30
2018-04-28T20:16:48.779Z,89.00
2018-04-28T20:19:16.344Z,89.00
2018-04-28T20:21:44.537Z,88.50
2018-04-28T20:24:24.979Z,88.70
2018-04-28T20:26:52.668Z,89.00
2018-04-28T20:29:20.329Z,89.10
2018-04-28T20:31:49.981Z,88.70
2018-04-28T20:34:18.683Z,88.40
2018-04-28T20:36:46.301Z,88.80
2018-04-28T20:39:13.802Z,89.20
2018-04-28T20:41:41.592Z,89.50
2018-04-28T20:44:09.908Z,90.30
2018-04-28T20:46:37.509Z,90.30
2018-04-28T20:49:05.043Z,90.50
2018-04-28T20:51:32.705Z,90.60
2018-04-28T20:54:00.384Z,90.90
2018-04-28T20:56:27.929Z,91.10
2018-04-28T20:58:55.440Z,91.50
2018-04-28T21:01:22.992Z,91.00
2018-04-28T21:03:50.574Z,91.10
2018-04-28T21:06:18.494Z,91.60
2018-04-28T21:08:46.014Z,91.20
2018-04-28T21:11:15.374Z,91.60
2018-04-28T21:13:42.927Z,91.50
2018-04-28T21:16:11.231Z,92.10
2018-04-28T21:18:38.780Z,92.20
2018-04-28T21:21:21.229Z,92.50
2018-04-28T21:23:50.092Z,93.20
2018-04-28T21:26:21.632Z,93.20
2018-04-28T21:28:49.425Z,93.30
2018-04-28T21:31:18.563Z,93.60
2018-04-28T21:33:46.031Z,93.60
2018-04-28T21:36:13.574Z,93.80
2018-04-28T21:38:41.824Z,94.40
2018-04-28T21:41:16.575Z,94.40
2018-04-28T21:43:44.211Z,94.40
2018-04-28T21:46:11.914Z,94.50
2018-04-28T21:48:40.667Z,94.90
2018-04-28T21:51:08.533Z,94.90
2018-04-28T21:53:36.513Z,95.00
2018-04-28T21:56:15.580Z,95.50
2018-04-28T21:58:43.098Z,95.50
2018-04-28T22:01:11.437Z,95.70
2018-04-28T22:03:49.046Z,95.90
2018-04-28T22:06:16.834Z,96.10
2018-04-28T22:08:45.529Z,96.20
2018-04-28T22:11:14.501Z,96.60
2018-04-28T22:13:42.377Z,96.80
2018-04-28T22:16:11.705Z,97.10
2018-04-28T22:18:39.429Z,97.00
2018-04-28T22:21:10.350Z,97.30
2018-04-28T22:23:38.112Z,97.20
2018-04-28T22:26:06.666Z,97.50
2018-04-28T22:28:34.275Z,97.70
2018-04-28T22:31:02.901Z,98.50
2018-04-28T22:33:30.561Z,98.50
2018-04-28T22:35:59.032Z,98.20
2018-04-28T22:38:26.564Z,98.50
2018-04-28T22:40:54.887Z,98.90
2018-04-28T22:43:22.394Z,98.90
2018-04-28T22:45:50.537Z,98.90
2018-04-28T22:48:18.115Z,99.10
2018-04-28T22:50:45.767Z,99.60
2018-04-28T22:53:13.395Z,99.70
2018-04-28T22:55:40.909Z,99.50
2018-04-28T22:58:09.225Z,99.90
2018-04-28T23:00:41.794Z,99.90
2018-04-28T23:03:09.349Z,99.90
2018-04-28T23:05:36.849Z,99.90
2018-04-28T23:08:04.365Z,99.90
2018-04-28T23:10:31.933Z,99.90
2018-04-28T23:12:59.471Z,99.90
2018-04-28T23:15:27.015Z,99.90
2018-04-28T23:17:55.373Z,99.90
2018-04-28T23:20:23.660Z,99.90
2018-04-28T23:22:51.968Z,99.90
2018-04-28T23:25:19.476Z,99.90
2018-04-28T23:27:47.033Z,99.90
2018-04-28T23:30:14.555Z,99.90
2018-04-28T23:32:42.040Z,99.90
2018-04-28T23:35:09.612Z,99.90
2018-04-28T23:37:37.915Z,99.90
2018-04-28T23:40:05.446Z,99.90
2018-04-28T23:42:32.968Z,99.90
2018-04-28T23:45:00.503Z,99.90
2018-04-28T23:47:28.012Z,99.90
2018-04-28T23:49:55.709Z,99.90
2018-04-28T23:52:23.262Z,99.90
2018-04-28T23:54:51.557Z,99.90
2018-04-28T23:57:19.077Z,99.90
2018-04-28T23:59:47.371Z,99.90
